Hovedside
METAR-TAF:

METAR-TAF

Lufthavner :

Umeå lufthavn

Umeå, Sverige

breddegrad: 63-48N, lengdegrad: 020-17E, høyde over havet: 7 m

Gjeldene værobservasjon

Denne rapporten ble laget for 33 minutter siden, klokken 23:20 UTC
Vind 2 kt fra skiftende retning
Temperatur -11°C
Luftfuktighet 92%
Trykk 1033 hPa
Sikt 10 km eller mer

METAR: ESNU 132320Z AUTO VRB02KT 9999 OVC018/// M11/M12 Q1033 R14/72//65

Tid: 00:53 (23:53 UTC)

Varsel

Denne rapporten ble laget for 23 minutter siden, klokken 23:30 UTC
Varsel gyldig fra 14. klokken 00 UTC til 14. klokken 09 UTC
Vind 2 kt fra Nordvest
Sikt 10 km eller mer
Spredte skyer i en høyde av 1800 ft

TAF: ESNU 132330Z 1400/1409 32002KT 9999 SCT018

Værobservasjoner og værvarsel for over 4000 flyplasser (METAR- og TAF-rapporter).

Tilgjengelige stasjoner er representert av de røde og gule prikkene på kartet.

Hold musepekeren over prikken for å se navnet på stasjonen.

Klikk så for å se værobservasjoner og -varsler.

For å forandre kartet kan du klikke på den grønne knappen med svart kryss for å zoome inn, på den grønne knappen med strek for å zoome ut, eller på de grønne pilene for å se tilstøtende kart.


METAR-TAF: